Time;durP1;ratioP1;P1;durP2;ratioP2;P2;SDS_P1;SDS_P2;PMS_P1;PMS_P2;Temp;Humidity;BMP_temperature;BMP_pressure;BME280_temperature;BME280_humidity;BME280_pressure;Samples;Min_cycle;Max_cycle;Signal;HPM_P1;HPM_P2
2023/01/30 00:01:22;;;;;;;19.60;10.00;;;;;;;1.73;78.69;95109.97;5052177;28;20419;-74
2023/01/30 00:03:48;;;;;;;18.38;10.43;;;;;;;1.79;78.64;95098.19;5051791;28;20469;-74
2023/01/30 00:06:14;;;;;;;18.40;8.77;;;;;;;1.94;77.82;95107.06;5052687;28;20961;-74
2023/01/30 00:08:39;;;;;;;18.92;10.30;;;;;;;1.80;77.30;95090.25;5051202;28;20410;-74
2023/01/30 00:11:07;;;;;;;17.23;9.87;;;;;;;1.83;78.46;95096.91;5052292;28;20257;-74
2023/01/30 00:13:33;;;;;;;22.95;11.02;;;;;;;1.89;77.88;95098.91;5051793;28;20399;-74
2023/01/30 00:15:59;;;;;;;18.20;10.27;;;;;;;1.79;77.47;95104.19;5053119;28;20947;-74
2023/01/30 00:18:24;;;;;;;19.70;10.87;;;;;;;1.69;78.25;95089.69;5071272;28;20906;-74
2023/01/30 00:20:57;;;;;;;19.43;11.37;;;;;;;1.67;79.21;95101.97;5053008;28;20450;-74
2023/01/30 00:23:22;;;;;;;15.80;8.53;;;;;;;1.79;78.48;95096.41;5052330;28;20183;-74
2023/01/30 00:25:47;;;;;;;22.13;11.83;;;;;;;1.69;79.00;95102.66;5051192;28;20477;-74
2023/01/30 00:28:13;;;;;;;19.80;11.13;;;;;;;1.68;78.60;95095.81;5050519;28;20427;-74
2023/01/30 00:30:38;;;;;;;19.50;10.30;;;;;;;1.42;79.85;95094.00;5051256;28;20408;-73
2023/01/30 00:33:04;;;;;;;24.73;12.57;;;;;;;1.29;80.15;95090.16;5051900;28;20411;-73
2023/01/30 00:35:29;;;;;;;21.03;10.97;;;;;;;1.37;80.65;95096.25;5050525;28;20912;-74
2023/01/30 00:37:56;;;;;;;21.13;10.37;;;;;;;1.31;80.36;95090.81;5051556;28;20424;-74
2023/01/30 00:40:23;;;;;;;20.40;10.97;;;;;;;1.20;80.49;95093.66;5050600;28;20427;-74
2023/01/30 00:48:16;;;;;;;17.42;9.27;;;;;;;1.13;80.79;95072.66;5050541;28;20785;-74
2023/01/30 00:50:41;;;;;;;20.30;10.43;;;;;;;1.10;80.73;95080.75;5064809;28;20418;-74
2023/01/30 00:53:11;;;;;;;21.05;10.63;;;;;;;1.24;80.80;95076.81;5071480;28;20410;-74
2023/01/30 00:55:37;;;;;;;20.70;10.77;;;;;;;1.27;80.16;95072.16;5071121;28;20434;-74
2023/01/30 00:58:02;;;;;;;18.23;9.30;;;;;;;1.26;80.89;95070.53;5070900;28;20421;-74
2023/01/30 01:00:28;;;;;;;15.30;8.63;;;;;;;1.23;80.56;95070.81;5062876;28;20179;-74
2023/01/30 01:02:53;;;;;;;18.67;9.77;;;;;;;1.20;80.82;95073.72;5049329;28;20962;-74
2023/01/30 01:05:18;;;;;;;17.70;9.25;;;;;;;1.26;80.51;95067.13;5050783;28;20441;-74
2023/01/30 01:07:44;;;;;;;16.37;8.47;;;;;;;1.29;80.06;95064.25;5051573;28;20179;-74
2023/01/30 01:10:15;;;;;;;19.03;9.63;;;;;;;1.30;80.11;95071.84;5050793;28;20499;-74
2023/01/30 01:12:43;;;;;;;18.50;10.93;;;;;;;1.35;80.40;95072.22;5050132;28;20405;-74
2023/01/30 01:15:10;;;;;;;20.17;9.73;;;;;;;1.35;80.10;95063.63;5050873;28;20498;-74
2023/01/30 01:17:36;;;;;;;18.88;9.68;;;;;;;1.32;80.11;95063.91;5049543;28;20431;-74
2023/01/30 01:20:02;;;;;;;16.77;9.77;;;;;;;1.16;80.15;95066.38;5050513;28;20442;-74
2023/01/30 01:22:27;;;;;;;19.52;9.30;;;;;;;1.19;80.16;95058.31;5050162;28;20476;-74
2023/01/30 01:24:53;;;;;;;19.93;9.43;;;;;;;1.09;80.85;95051.41;5062551;28;20409;-74
2023/01/30 01:27:18;;;;;;;19.07;8.83;;;;;;;1.19;80.31;95053.13;5066126;28;20198;-74
2023/01/30 01:29:44;;;;;;;16.27;9.03;;;;;;;1.20;80.86;95049.56;5066108;28;20174;-74
2023/01/30 01:32:09;;;;;;;19.40;9.10;;;;;;;1.20;80.22;95047.78;5070226;28;20903;-74
2023/01/30 01:34:35;;;;;;;17.00;9.23;;;;;;;1.06;80.87;95045.72;5051376;28;20415;-74
2023/01/30 01:37:00;;;;;;;17.57;10.23;;;;;;;1.11;80.55;95044.31;5048021;28;20439;-74
2023/01/30 01:41:00;;;;;;;14.97;7.57;;;;;;;0.99;81.25;95049.84;5051115;28;20167;-74
2023/01/30 01:42:11;;;;;;;15.93;9.05;;;;;;;1.08;81.40;95034.25;5054145;28;20484;-74
2023/01/30 01:45:15;;;;;;;16.83;8.93;;;;;;;0.98;80.84;95041.25;5049974;28;20897;-74
2023/01/30 01:47:44;;;;;;;16.48;9.50;;;;;;;0.95;81.54;95040.75;5044524;28;20439;-74
2023/01/30 01:50:20;;;;;;;18.08;8.50;;;;;;;1.14;80.98;95044.00;5049058;28;20790;-76
2023/01/30 01:52:48;;;;;;;16.08;8.60;;;;;;;1.20;80.12;95045.22;5050614;28;20419;-74
2023/01/30 01:55:14;;;;;;;18.58;9.20;;;;;;;1.20;80.38;95039.22;5049255;28;20506;-74
2023/01/30 01:58:11;;;;;;;17.13;8.68;;;;;;;1.21;80.01;95040.84;5049393;28;20415;-74
2023/01/30 02:00:37;;;;;;;16.75;9.05;;;;;;;1.19;80.71;95045.34;5044984;28;20511;-75
2023/01/30 02:03:09;;;;;;;15.63;9.00;;;;;;;1.20;80.45;95044.38;5049346;28;20593;-74
2023/01/30 02:05:41;;;;;;;16.30;8.52;;;;;;;1.27;79.44;95046.22;5049700;28;20419;-74
2023/01/30 02:08:22;;;;;;;18.52;8.32;;;;;;;1.43;78.36;95050.72;5049701;28;20979;-74
2023/01/30 02:11:02;;;;;;;18.77;9.55;;;;;;;1.38;78.58;95048.59;5048966;28;20435;-74
2023/01/30 02:13:27;;;;;;;13.53;5.97;;;;;;;1.45;78.29;95038.44;5050740;28;20174;-74
2023/01/30 02:15:56;;;;;;;15.23;8.03;;;;;;;1.50;78.68;95038.78;5049427;28;20435;-75
2023/01/30 02:18:22;;;;;;;15.20;7.50;;;;;;;1.46;78.89;95040.88;5050337;28;20865;-74
2023/01/30 02:21:18;;;;;;;14.33;8.00;;;;;;;1.49;78.35;95044.94;5049299;28;20461;-74
2023/01/30 02:24:11;;;;;;;13.73;8.20;;;;;;;1.40;77.94;95041.47;5048887;28;20498;-74
2023/01/30 02:26:54;;;;;;;11.48;7.20;;;;;;;1.37;77.96;95044.38;5056762;28;20776;-74
2023/01/30 02:29:38;;;;;;;12.50;5.87;;;;;;;1.44;77.76;95042.81;5041569;28;20209;-74
2023/01/30 02:32:03;;;;;;;14.15;8.07;;;;;;;1.46;78.43;95045.25;5048926;28;20466;-74
2023/01/30 02:34:41;;;;;;;14.63;6.87;;;;;;;1.43;78.25;95042.94;5050490;28;20282;-74
2023/01/30 02:37:45;;;;;;;14.90;7.95;;;;;;;1.41;78.85;95037.91;5048993;28;20441;-74
2023/01/30 02:40:28;;;;;;;16.95;9.15;;;;;;;1.41;78.97;95035.31;5048880;28;20418;-74
2023/01/30 02:43:18;;;;;;;14.40;8.57;;;;;;;1.35;78.10;95037.69;5048733;28;20418;-74
2023/01/30 02:45:59;;;;;;;15.60;8.43;;;;;;;1.28;78.79;95036.69;5049362;28;20408;-74
2023/01/30 02:48:36;;;;;;;15.17;6.83;;;;;;;1.32;77.89;95027.63;5050471;28;20179;-74
2023/01/30 02:51:06;;;;;;;12.37;6.67;;;;;;;1.20;77.78;95026.25;5049004;28;20485;-74
2023/01/30 02:53:33;;;;;;;13.18;6.88;;;;;;;1.11;77.25;95027.94;5048892;28;21330;-74
2023/01/30 02:55:59;;;;;;;12.93;7.05;;;;;;;1.17;77.72;95031.72;5049058;28;20504;-74
2023/01/30 02:58:28;;;;;;;12.83;6.57;;;;;;;1.21;77.66;95039.03;5049354;28;20431;-74
2023/01/30 03:01:32;;;;;;;12.73;6.65;;;;;;;1.12;77.94;95038.16;5051003;28;20415;-74
2023/01/30 03:04:09;;;;;;;13.23;7.10;;;;;;;1.19;77.60;95042.75;5059401;28;20791;-74
2023/01/30 03:06:50;;;;;;;14.02;7.32;;;;;;;1.14;77.41;95044.00;5073169;28;20423;-74
2023/01/30 03:09:25;;;;;;;13.52;6.82;;;;;;;1.24;77.81;95050.88;5072316;28;20493;-74
2023/01/30 03:11:57;;;;;;;12.20;6.78;;;;;;;1.26;76.93;95034.22;5072518;28;20413;-74
2023/01/30 03:14:29;;;;;;;12.10;6.57;;;;;;;1.12;77.25;95022.59;5067321;28;20423;-74
2023/01/30 03:16:58;;;;;;;13.80;5.93;;;;;;;1.18;78.15;95026.38;5053377;28;20300;-74
2023/01/30 03:19:25;;;;;;;13.63;6.97;;;;;;;1.25;77.59;95026.59;5053193;28;20951;-74
2023/01/30 03:21:50;;;;;;;13.00;6.90;;;;;;;1.29;77.78;95020.97;5053214;28;20998;-74
2023/01/30 03:24:16;;;;;;;11.73;5.53;;;;;;;1.32;77.56;95017.25;5053658;28;20179;-74
2023/01/30 03:26:47;;;;;;;15.90;6.40;;;;;;;1.46;77.66;95014.13;5053679;28;20671;-74
2023/01/30 03:29:13;;;;;;;13.13;6.00;;;;;;;1.44;77.09;95010.88;5049676;28;20182;-74
2023/01/30 03:31:39;;;;;;;18.15;8.63;;;;;;;1.43;77.41;94999.69;5052243;28;20419;-74
2023/01/30 03:34:04;;;;;;;15.60;7.40;;;;;;;1.42;77.96;94997.25;5053388;28;20985;-74
2023/01/30 03:36:30;;;;;;;14.73;8.63;;;;;;;1.39;77.55;94992.34;5052211;28;20435;-74
2023/01/30 03:38:55;;;;;;;15.30;8.23;;;;;;;1.23;77.86;94998.22;5047734;28;20419;-74
2023/01/30 03:41:20;;;;;;;13.30;7.37;;;;;;;1.20;77.92;94989.94;5052257;28;20563;-74
2023/01/30 03:43:46;;;;;;;15.43;7.97;;;;;;;1.32;78.39;95001.69;5052061;28;20429;-74
2023/01/30 03:46:11;;;;;;;12.40;6.60;;;;;;;1.42;78.39;95002.41;5052769;28;20183;-74
2023/01/30 03:48:36;;;;;;;13.20;6.63;;;;;;;1.47;77.70;95000.22;5053446;28;20179;-74
2023/01/30 03:51:02;;;;;;;10.93;6.50;;;;;;;1.45;77.82;94995.16;5051953;28;20175;-74
2023/01/30 03:53:27;;;;;;;14.38;7.50;;;;;;;1.33;78.05;94991.19;5051630;28;20808;-74
2023/01/30 03:55:53;;;;;;;14.07;8.10;;;;;;;1.41;77.76;94987.81;5052368;28;20437;-74
2023/01/30 03:58:18;;;;;;;17.33;9.00;;;;;;;1.39;78.21;94979.38;5069306;28;20409;-74
2023/01/30 04:00:44;;;;;;;14.80;8.83;;;;;;;1.37;77.86;94991.69;5062583;28;20492;-74
2023/01/30 04:03:09;;;;;;;13.83;8.10;;;;;;;1.27;78.56;94983.19;5052004;28;20419;-74
2023/01/30 04:05:34;;;;;;;12.27;7.30;;;;;;;1.35;77.85;94991.03;5059733;28;20229;-74
2023/01/30 04:08:00;;;;;;;17.63;8.97;;;;;;;1.27;78.40;94989.19;5053940;28;20913;-74
2023/01/30 04:10:25;;;;;;;16.90;9.30;;;;;;;1.26;79.11;94986.75;5051474;28;20897;-74
2023/01/30 04:12:51;;;;;;;19.58;9.57;;;;;;;1.19;78.54;94989.13;5052294;28;20469;-74
2023/01/30 04:15:16;;;;;;;17.77;8.60;;;;;;;1.10;78.58;94985.66;5067203;28;20421;-74
2023/01/30 04:17:43;;;;;;;16.70;8.30;;;;;;;1.18;78.92;94989.28;5053922;28;20458;-74
2023/01/30 04:20:09;;;;;;;15.00;8.20;;;;;;;1.17;78.55;94988.47;5072211;28;20421;-73
2023/01/30 04:22:35;;;;;;;15.60;7.83;;;;;;;1.21;79.18;94989.00;5060405;28;20565;-74
2023/01/30 04:25:00;;;;;;;15.53;7.87;;;;;;;1.20;79.03;94980.41;5051013;28;20428;-74
2023/01/30 04:27:26;;;;;;;19.88;8.38;;;;;;;1.24;78.95;94981.72;5051231;28;20412;-73
2023/01/30 04:29:51;;;;;;;14.20;8.10;;;;;;;1.15;79.43;94985.19;5050744;28;20419;-74
2023/01/30 04:32:17;;;;;;;18.43;10.30;;;;;;;1.09;79.74;94980.63;5052148;28;20418;-73
2023/01/30 04:34:43;;;;;;;18.03;9.63;;;;;;;1.14;79.47;94988.75;5070821;28;20471;-73
2023/01/30 04:37:10;;;;;;;20.80;9.60;;;;;;;1.13;79.60;94984.53;5069503;28;20435;-73
2023/01/30 04:39:35;;;;;;;22.40;10.00;;;;;;;1.25;79.32;94982.53;5062585;28;20423;-74
2023/01/30 04:42:00;;;;;;;16.43;8.57;;;;;;;1.26;79.30;94977.19;5052279;28;20429;-74
2023/01/30 04:44:26;;;;;;;19.30;9.53;;;;;;;1.36;79.41;94983.09;5050822;28;20418;-74
2023/01/30 04:46:52;;;;;;;18.42;9.60;;;;;;;1.28;79.12;94969.28;5050646;28;20762;-74
2023/01/30 04:49:17;;;;;;;17.63;8.30;;;;;;;1.27;79.32;94965.88;5063935;28;20177;-74
2023/01/30 04:51:43;;;;;;;19.07;9.90;;;;;;;1.35;78.85;94971.09;5066755;28;20415;-73
2023/01/30 04:54:08;;;;;;;18.33;9.47;;;;;;;1.34;79.07;94955.69;5050653;28;20419;-73
2023/01/30 04:56:33;;;;;;;16.57;8.70;;;;;;;1.38;79.95;94963.03;5050463;28;20438;-74
2023/01/30 04:58:59;;;;;;;18.57;9.47;;;;;;;1.42;79.49;94948.78;5051894;28;20174;-73
2023/01/30 05:01:32;;;;;;;17.10;7.97;;;;;;;1.46;79.54;94965.69;5051576;28;20261;-74
2023/01/30 05:03:58;;;;;;;20.77;10.13;;;;;;;1.31;78.82;94961.16;5050559;28;20407;-73
2023/01/30 05:06:23;;;;;;;23.27;10.98;;;;;;;1.25;79.61;94956.59;5050121;28;20517;-73
2023/01/30 05:08:54;;;;;;;21.83;11.57;;;;;;;1.04;79.87;94962.91;5050685;28;20481;-73
2023/01/30 05:11:20;;;;;;;19.85;10.30;;;;;;;0.95;80.78;94958.63;5046644;28;20424;-73
2023/01/30 05:13:46;;;;;;;20.50;9.73;;;;;;;0.82;81.16;94952.22;5052094;28;20406;-73
2023/01/30 05:16:13;;;;;;;20.87;10.17;;;;;;;0.81;81.97;94953.19;5049737;28;20530;-73
2023/01/30 05:18:38;;;;;;;26.40;12.80;;;;;;;0.87;82.47;94957.75;5049873;28;20473;-73
2023/01/30 05:21:09;;;;;;;21.30;11.43;;;;;;;0.82;82.85;94952.22;5050039;28;20423;-73
2023/01/30 05:23:34;;;;;;;18.38;9.48;;;;;;;0.97;81.88;94959.31;5049209;28;20419;-73
2023/01/30 05:26:00;;;;;;;18.37;9.80;;;;;;;0.83;82.22;94953.84;5048348;28;20844;-73
2023/01/30 05:28:26;;;;;;;18.75;10.63;;;;;;;0.85;82.33;94968.28;5047382;28;20503;-73
2023/01/30 05:30:52;;;;;;;23.53;11.13;;;;;;;0.95;82.50;94965.63;5070965;28;20265;-73
2023/01/30 05:33:18;;;;;;;21.13;10.33;;;;;;;1.03;82.28;94973.47;5070934;28;20228;-73
2023/01/30 05:35:48;;;;;;;27.23;10.70;;;;;;;1.11;82.15;94961.38;5070785;28;20237;-73
2023/01/30 05:38:14;;;;;;;20.20;10.93;;;;;;;1.10;81.84;94951.97;5070484;28;20501;-73
2023/01/30 05:40:39;;;;;;;24.33;12.48;;;;;;;0.97;82.18;94967.09;5069635;28;20506;-73
2023/01/30 05:43:04;;;;;;;21.33;12.60;;;;;;;0.87;81.98;94955.97;5063572;28;20435;-73
2023/01/30 05:45:30;;;;;;;22.47;11.90;;;;;;;0.81;81.69;94966.94;5049735;28;20430;-73
2023/01/30 05:47:55;;;;;;;25.00;11.87;;;;;;;0.92;82.50;94971.09;5050037;28;20510;-73
2023/01/30 05:50:21;;;;;;;24.00;12.23;;;;;;;0.90;81.88;94966.06;5049943;28;20469;-73
2023/01/30 05:52:46;;;;;;;24.53;12.83;;;;;;;0.98;81.99;94965.31;5049751;28;20518;-74
2023/01/30 05:55:12;;;;;;;25.67;13.13;;;;;;;1.07;82.42;94974.78;5049723;28;20427;-74
2023/01/30 05:57:37;;;;;;;30.33;15.70;;;;;;;1.09;82.29;94978.84;5050158;28;20493;-74
2023/01/30 06:00:04;;;;;;;28.40;15.90;;;;;;;1.17;82.00;94978.09;5049490;28;20930;-74
2023/01/30 06:02:30;;;;;;;32.00;14.30;;;;;;;1.22;81.91;94977.63;5049124;28;20461;-74
2023/01/30 06:04:55;;;;;;;24.90;12.80;;;;;;;1.28;81.60;94977.88;5053316;28;20187;-74
2023/01/30 06:07:21;;;;;;;23.23;10.97;;;;;;;1.35;82.18;94983.25;5050545;28;20611;-75
2023/01/30 06:09:46;;;;;;;24.40;11.47;;;;;;;1.27;80.71;94973.66;5050568;28;20484;-74
2023/01/30 06:12:12;;;;;;;25.17;12.27;;;;;;;1.32;80.32;94975.78;5049289;28;20506;-74
2023/01/30 06:14:37;;;;;;;22.57;11.77;;;;;;;1.20;81.18;94977.00;5049549;28;20518;-74
2023/01/30 06:17:03;;;;;;;23.48;11.88;;;;;;;1.11;81.06;94978.72;5049087;28;20832;-74
2023/01/30 06:19:28;;;;;;;19.17;9.97;;;;;;;1.05;81.82;94980.09;5049899;28;20261;-74
2023/01/30 06:21:53;;;;;;;24.67;12.93;;;;;;;0.90;81.77;94978.19;5049494;28;20490;-74
2023/01/30 06:24:19;;;;;;;28.87;16.03;;;;;;;0.79;83.25;94970.63;5049577;28;20867;-74
2023/01/30 06:26:44;;;;;;;35.17;17.10;;;;;;;0.80;83.13;94970.50;5058543;28;20444;-74
2023/01/30 06:29:09;;;;;;;33.20;17.40;;;;;;;0.73;83.47;94969.47;5069279;28;20439;-74
2023/01/30 06:31:35;;;;;;;23.90;13.57;;;;;;;0.88;83.24;94973.16;5051154;28;20412;-75
2023/01/30 06:34:00;;;;;;;29.03;13.63;;;;;;;0.83;83.53;94969.38;5050769;28;20425;-75
2023/01/30 06:36:26;;;;;;;27.03;14.07;;;;;;;0.86;83.33;94972.50;5052810;28;20438;-72
2023/01/30 06:38:51;;;;;;;27.30;14.00;;;;;;;0.89;83.21;94968.78;5046604;28;20422;-72
2023/01/30 06:41:17;;;;;;;26.00;13.50;;;;;;;0.84;82.79;94974.44;5053802;28;20418;-72
2023/01/30 06:43:42;;;;;;;25.25;13.15;;;;;;;0.86;83.42;94969.09;5068908;28;20414;-72
2023/01/30 06:46:08;;;;;;;24.93;11.90;;;;;;;0.92;83.46;94971.91;5056902;28;20229;-75
2023/01/30 06:48:34;;;;;;;27.08;14.05;;;;;;;0.98;83.16;94973.91;5072965;28;20433;-75
2023/01/30 06:50:59;;;;;;;27.53;12.00;;;;;;;1.03;82.88;94971.69;5065491;28;20179;-75
2023/01/30 06:53:29;;;;;;;30.33;16.40;;;;;;;1.09;82.80;94980.63;5052798;28;20422;-75
2023/01/30 06:55:56;;;;;;;36.13;17.20;;;;;;;1.03;82.73;94976.06;5052456;28;21001;-74
2023/01/30 06:58:21;;;;;;;31.97;15.77;;;;;;;1.02;82.42;94980.41;5052836;28;20415;-75
2023/01/30 07:00:47;;;;;;;33.33;15.73;;;;;;;0.99;83.10;94980.72;5053955;28;20417;-75
2023/01/30 07:03:14;;;;;;;30.87;15.17;;;;;;;1.04;83.18;94978.47;5053877;28;20214;-75
2023/01/30 07:05:40;;;;;;;33.30;14.93;;;;;;;1.08;83.22;94985.00;5072425;28;20178;-75
2023/01/30 07:08:05;;;;;;;31.17;14.48;;;;;;;1.07;82.81;94982.56;5058780;28;20553;-75
2023/01/30 07:10:31;;;;;;;37.27;16.90;;;;;;;1.08;82.76;94990.19;5052908;28;20423;-75
2023/01/30 07:12:57;;;;;;;34.03;16.07;;;;;;;1.02;82.54;94995.97;5052410;28;20415;-75
2023/01/30 07:15:23;;;;;;;31.97;14.20;;;;;;;1.07;82.34;94991.13;5053631;28;20186;-75
2023/01/30 07:17:48;;;;;;;31.63;14.57;;;;;;;1.16;81.69;94992.03;5064107;28;20426;-72
2023/01/30 07:20:14;;;;;;;33.75;16.25;;;;;;;1.16;82.22;94996.38;5049291;28;20446;-74
2023/01/30 07:22:41;;;;;;;28.37;14.07;;;;;;;1.21;82.30;94989.78;5050736;28;20214;-75
2023/01/30 07:25:07;;;;;;;32.08;16.20;;;;;;;1.25;82.11;94985.13;5052341;28;20415;-75
2023/01/30 07:27:33;;;;;;;35.67;14.90;;;;;;;1.34;80.93;94984.22;5053519;28;20186;-75
2023/01/30 07:29:59;;;;;;;31.63;15.43;;;;;;;1.34;81.57;94986.81;5053629;28;20186;-75
2023/01/30 07:32:24;;;;;;;34.60;14.60;;;;;;;1.38;80.87;94993.34;5053020;28;20189;-75
2023/01/30 07:34:49;;;;;;;31.13;13.90;;;;;;;1.42;81.23;94998.06;5053342;28;20182;-74
2023/01/30 07:37:15;;;;;;;31.33;14.33;;;;;;;1.55;80.71;95002.03;5053035;28;20261;-74
2023/01/30 07:39:40;;;;;;;34.20;16.20;;;;;;;1.45;80.22;95002.13;5049126;28;20519;-72
2023/01/30 07:42:06;;;;;;;33.30;16.37;;;;;;;1.43;80.08;95012.66;5053386;28;20182;-72
2023/01/30 07:44:33;;;;;;;32.60;15.03;;;;;;;1.44;80.23;95005.69;5053282;28;20191;-75
2023/01/30 07:46:59;;;;;;;34.40;15.83;;;;;;;1.35;79.56;95007.41;5051659;28;20285;-75
2023/01/30 07:49:24;;;;;;;30.30;14.37;;;;;;;1.37;80.42;94996.88;5051090;28;20166;-75
2023/01/30 07:51:50;;;;;;;32.60;14.47;;;;;;;1.44;79.63;95000.50;5072884;28;20186;-75
2023/01/30 07:54:15;;;;;;;29.17;14.60;;;;;;;1.44;79.81;95003.09;5069415;28;20194;-75
2023/01/30 07:56:41;;;;;;;36.60;15.33;;;;;;;1.45;79.77;94995.16;5053290;28;20219;-75
2023/01/30 07:59:06;;;;;;;35.27;15.77;;;;;;;1.55;79.42;94991.66;5047715;28;20711;-75
2023/01/30 08:01:32;;;;;;;40.10;18.63;;;;;;;1.58;79.95;94986.97;5048804;28;20179;-75
2023/01/30 08:03:57;;;;;;;34.37;15.70;;;;;;;1.67;79.32;94982.63;5044836;28;20218;-76
2023/01/30 08:06:23;;;;;;;33.87;17.57;;;;;;;1.67;79.65;94975.69;5037783;28;20183;-76
2023/01/30 08:08:48;;;;;;;33.43;14.40;;;;;;;1.64;79.13;94976.00;5051228;28;20183;-74
2023/01/30 08:11:14;;;;;;;28.27;14.67;;;;;;;1.64;79.28;94970.00;5053061;28;20178;-73
2023/01/30 08:13:39;;;;;;;29.53;15.27;;;;;;;1.72;79.26;94975.22;5052237;28;20616;-73
2023/01/30 08:16:06;;;;;;;25.53;12.33;;;;;;;1.70;79.08;94979.75;5039449;28;20202;-74
2023/01/30 08:18:32;;;;;;;30.33;14.13;;;;;;;1.67;78.41;94974.84;5037360;28;20191;-73
2023/01/30 08:21:04;;;;;;;33.47;15.17;;;;;;;1.67;78.95;94977.44;5037866;28;20782;-73
2023/01/30 08:23:30;;;;;;;31.43;14.33;;;;;;;1.61;79.08;94955.53;5052574;28;20560;-75
2023/01/30 08:25:58;;;;;;;29.00;13.10;;;;;;;1.74;78.82;94970.69;5039779;28;20176;-73
2023/01/30 08:28:24;;;;;;;23.00;11.20;;;;;;;1.74;78.08;94965.50;5045546;28;20232;-73
2023/01/30 08:30:52;;;;;;;24.37;11.70;;;;;;;1.78;77.98;94962.44;5047469;28;20183;-74
2023/01/30 08:33:17;;;;;;;32.90;14.27;;;;;;;1.79;77.59;94961.47;5052377;28;20258;-74
2023/01/30 08:35:43;;;;;;;26.37;12.73;;;;;;;1.78;76.98;94959.03;5052347;28;20748;-74
2023/01/30 08:38:08;;;;;;;28.47;12.60;;;;;;;1.77;77.40;94950.44;5052210;28;20179;-74
2023/01/30 08:40:35;;;;;;;29.43;13.80;;;;;;;1.80;77.70;94955.31;5052317;28;20574;-74
2023/01/30 08:43:00;;;;;;;36.83;14.97;;;;;;;1.85;77.48;94952.25;5047243;28;20172;-73
2023/01/30 08:45:26;;;;;;;32.73;13.80;;;;;;;1.88;76.97;94957.16;5038842;28;20275;-73
2023/01/30 08:47:52;;;;;;;34.30;13.17;;;;;;;1.85;77.18;94947.88;5051353;28;20183;-73
2023/01/30 08:50:17;;;;;;;28.83;11.90;;;;;;;1.85;76.99;94949.66;5047790;28;20222;-73
2023/01/30 08:52:42;;;;;;;37.93;14.30;;;;;;;1.84;77.37;94953.22;5050521;28;20185;-73
2023/01/30 08:55:08;;;;;;;26.70;11.63;;;;;;;1.83;78.05;94949.81;5038894;28;20183;-73
2023/01/30 08:57:34;;;;;;;28.50;12.73;;;;;;;1.77;78.32;94945.25;5039046;28;20274;-73
2023/01/30 09:00:00;;;;;;;24.03;12.00;;;;;;;1.79;78.64;94943.31;5036915;28;20681;-73
2023/01/30 09:02:25;;;;;;;24.30;11.73;;;;;;;1.76;78.11;94933.25;5043707;28;20179;-73
2023/01/30 09:04:51;;;;;;;29.40;12.40;;;;;;;1.74;78.27;94924.78;5042953;28;20618;-73
2023/01/30 09:07:16;;;;;;;24.67;12.13;;;;;;;1.87;77.78;94939.94;5043515;28;20172;-73
2023/01/30 09:09:41;;;;;;;28.40;12.80;;;;;;;1.86;77.62;94936.53;5039299;28;20799;-73
2023/01/30 09:12:07;;;;;;;25.37;12.20;;;;;;;1.81;77.51;94933.59;5042953;28;20183;-74
2023/01/30 09:14:32;;;;;;;28.40;13.53;;;;;;;1.84;77.63;94930.69;5038581;28;20201;-74
2023/01/30 09:16:58;;;;;;;19.30;9.53;;;;;;;1.80;76.74;94929.38;5040131;28;20623;-74
2023/01/30 09:19:26;;;;;;;20.20;9.63;;;;;;;1.61;77.34;94932.19;5044666;28;20656;-73
2023/01/30 09:21:53;;;;;;;18.77;9.63;;;;;;;1.71;77.07;94930.31;5046009;28;20197;-74
2023/01/30 09:24:20;;;;;;;20.83;9.83;;;;;;;1.74;77.34;94926.56;5043255;28;20184;-74
2023/01/30 09:26:46;;;;;;;18.93;9.47;;;;;;;1.78;77.73;94926.13;5039055;28;20244;-74
2023/01/30 09:29:13;;;;;;;19.47;9.63;;;;;;;1.79;76.78;94916.56;5041588;28;20176;-74
2023/01/30 09:31:39;;;;;;;25.70;11.47;;;;;;;1.79;76.71;94930.34;5047652;28;20257;-73
2023/01/30 09:34:06;;;;;;;31.60;9.27;;;;;;;1.74;76.84;94923.97;5044582;28;20172;-75
2023/01/30 09:36:31;;;;;;;16.50;8.17;;;;;;;1.74;77.16;94924.78;5040620;28;20555;-74
2023/01/30 09:38:57;;;;;;;15.80;8.43;;;;;;;1.62;77.24;94923.44;5044471;28;20178;-75
2023/01/30 09:41:41;;;;;;;18.27;9.60;;;;;;;1.59;77.64;94918.56;5049145;28;20166;-74
2023/01/30 09:44:43;;;;;;;19.07;9.37;;;;;;;1.63;78.38;94909.53;5050754;28;20191;-72
2023/01/30 09:47:15;;;;;;;13.77;7.93;;;;;;;1.54;78.27;94912.22;5043621;28;20206;-73
2023/01/30 09:49:40;;;;;;;17.73;8.20;;;;;;;1.56;78.49;94908.47;5042332;28;20217;-72
2023/01/30 09:52:30;;;;;;;20.20;9.27;;;;;;;1.61;78.37;94906.25;5065835;28;20648;-73
2023/01/30 09:55:13;;;;;;;25.53;11.60;;;;;;;1.71;77.55;94911.34;5052648;28;21030;-73
2023/01/30 09:57:40;;;;;;;16.30;8.20;;;;;;;1.55;77.72;94895.69;5050689;28;20230;-73
2023/01/30 10:00:27;;;;;;;18.07;8.67;;;;;;;1.58;78.24;94909.16;5046490;28;20210;-74
2023/01/30 10:03:03;;;;;;;19.63;8.77;;;;;;;1.49;78.47;94889.31;5047993;28;20221;-73
2023/01/30 10:05:37;;;;;;;19.73;9.27;;;;;;;1.49;78.53;94891.91;5044237;28;20170;-73
2023/01/30 10:08:06;;;;;;;20.27;9.60;;;;;;;1.54;78.31;94884.50;5048404;28;20190;-73
2023/01/30 10:10:37;;;;;;;23.57;11.23;;;;;;;1.54;77.72;94879.31;5050174;28;20181;-74
2023/01/30 10:13:18;;;;;;;24.47;10.47;;;;;;;1.51;78.27;94870.06;5041898;28;20199;-74
2023/01/30 10:16:15;;;;;;;17.90;8.23;;;;;;;1.40;77.48;94875.50;5050250;28;20182;-73
2023/01/30 10:18:59;;;;;;;20.07;9.63;;;;;;;1.35;77.83;94861.38;5045937;28;20218;-73
2023/01/30 10:21:43;;;;;;;22.93;10.63;;;;;;;1.41;77.79;94858.16;5049060;28;20591;-74
2023/01/30 10:24:33;;;;;;;19.03;9.70;;;;;;;1.57;77.59;94853.06;5046168;28;20178;-74
2023/01/30 10:26:58;;;;;;;20.07;9.37;;;;;;;1.60;76.25;94850.16;5042235;28;20182;-74
2023/01/30 10:29:32;;;;;;;21.87;9.63;;;;;;;1.43;75.88;94848.47;5042141;28;20536;-74
2023/01/30 10:32:03;;;;;;;16.77;9.17;;;;;;;1.35;76.99;94845.84;5045254;28;20623;-74
2023/01/30 10:34:42;;;;;;;27.37;13.70;;;;;;;1.37;76.75;94839.53;5040554;28;20175;-74
2023/01/30 10:37:14;;;;;;;22.67;10.70;;;;;;;1.48;76.83;94834.06;5046454;28;20209;-73
2023/01/30 10:40:12;;;;;;;17.17;9.20;;;;;;;1.46;76.47;94824.81;5030894;28;20187;-74
2023/01/30 10:42:59;;;;;;;21.40;10.20;;;;;;;1.34;76.26;94826.06;5037074;28;20191;-74
2023/01/30 10:45:50;;;;;;;20.97;11.27;;;;;;;1.37;76.45;94815.38;5048001;28;20213;-74
2023/01/30 10:48:52;;;;;;;17.97;9.10;;;;;;;1.39;75.87;94808.25;5050098;28;20175;-73
2023/01/30 10:51:36;;;;;;;14.67;8.47;;;;;;;1.30;75.85;94802.22;5049740;28;20186;-72
2023/01/30 10:54:13;;;;;;;17.83;9.00;;;;;;;1.22;75.91;94798.75;5046643;28;20182;-72
2023/01/30 10:56:48;;;;;;;27.93;12.20;;;;;;;1.26;77.23;94797.50;5047824;28;20262;-72
2023/01/30 11:11:51;;;;;;;18.33;9.43;;;;;;;1.52;74.81;94761.94;5107540;27;20552;-72
2023/01/30 11:14:17;;;;;;;23.97;10.27;;;;;;;1.49;75.27;94757.06;5106819;28;20551;-74
2023/01/30 11:16:44;;;;;;;20.10;9.30;;;;;;;1.63;75.16;94750.47;5107487;28;20181;-74
2023/01/30 11:19:11;;;;;;;24.17;12.17;;;;;;;1.72;75.62;94747.75;5107451;28;20177;-74
2023/01/30 11:21:41;;;;;;;27.10;14.07;;;;;;;1.66;74.88;94743.16;5106816;28;20254;-72
2023/01/30 11:24:19;;;;;;;18.63;9.93;;;;;;;1.63;74.86;94724.53;5107284;28;20318;-72
2023/01/30 11:26:46;;;;;;;16.57;9.07;;;;;;;1.50;75.30;94705.03;5107019;28;20219;-72
2023/01/30 11:29:14;;;;;;;19.53;9.07;;;;;;;1.62;75.26;94720.31;5105494;28;20177;-74
2023/01/30 11:31:40;;;;;;;21.30;10.13;;;;;;;1.50;75.72;94719.78;5106796;28;20180;-73
2023/01/30 11:34:14;;;;;;;23.60;10.50;;;;;;;1.62;76.04;94722.91;5103690;28;20683;-72
2023/01/30 11:36:40;;;;;;;28.03;11.57;;;;;;;1.68;75.47;94712.69;5103576;28;20708;-72
2023/01/30 11:39:12;;;;;;;17.37;9.07;;;;;;;1.68;75.89;94717.06;5104312;28;20173;-73
2023/01/30 11:41:43;;;;;;;21.20;10.20;;;;;;;1.56;75.56;94703.59;5104210;28;20609;-72
2023/01/30 11:44:10;;;;;;;23.97;11.00;;;;;;;1.50;75.91;94704.22;5106314;28;20205;-72
2023/01/30 11:46:38;;;;;;;23.17;10.93;;;;;;;1.55;76.77;94689.03;5104223;28;20227;-73
2023/01/30 11:49:12;;;;;;;28.73;13.23;;;;;;;1.74;76.14;94688.69;5103699;28;20181;-73
2023/01/30 11:51:41;;;;;;;30.93;13.13;;;;;;;1.78;75.71;94677.03;5105170;28;20173;-72
2023/01/30 11:54:14;;;;;;;28.80;12.93;;;;;;;1.83;nan;94671.34;5105695;28;20661;-73
2023/01/30 11:56:51;;;;;;;28.97;11.57;;;;;;;1.90;74.75;94672.34;5105584;28;20248;-73